sensor_id;sensor_type;location;lat;lon;timestamp;P1;durP1;ratioP1;P2;durP2;ratioP2
37857;SDS011;23695;55.868;37.472;2022-07-03T00:00:34;13.05;;;5.13;;
37857;SDS011;23695;55.868;37.472;2022-07-03T00:03:00;9.38;;;5.03;;
37857;SDS011;23695;55.868;37.472;2022-07-03T00:05:26;10.80;;;4.93;;
37857;SDS011;23695;55.868;37.472;2022-07-03T00:07:52;9.82;;;5.30;;
37857;SDS011;23695;55.868;37.472;2022-07-03T00:10:18;15.32;;;5.28;;
37857;SDS011;23695;55.868;37.472;2022-07-03T00:12:44;11.52;;;4.70;;
37857;SDS011;23695;55.868;37.472;2022-07-03T00:15:10;8.38;;;4.65;;
37857;SDS011;23695;55.868;37.472;2022-07-03T00:17:36;6.65;;;4.70;;
37857;SDS011;23695;55.868;37.472;2022-07-03T00:20:02;9.15;;;4.32;;
37857;SDS011;23695;55.868;37.472;2022-07-03T00:22:29;9.68;;;4.78;;
37857;SDS011;23695;55.868;37.472;2022-07-03T00:25:01;9.23;;;4.53;;
37857;SDS011;23695;55.868;37.472;2022-07-03T00:27:29;10.55;;;4.97;;
37857;SDS011;23695;55.868;37.472;2022-07-03T00:29:59;10.75;;;4.88;;
37857;SDS011;23695;55.868;37.472;2022-07-03T00:32:26;9.75;;;5.30;;
37857;SDS011;23695;55.868;37.472;2022-07-03T00:34:54;7.03;;;4.80;;
37857;SDS011;23695;55.868;37.472;2022-07-03T00:37:21;9.40;;;5.20;;
37857;SDS011;23695;55.868;37.472;2022-07-03T00:39:48;11.27;;;5.35;;
37857;SDS011;23695;55.868;37.472;2022-07-03T00:42:14;8.55;;;5.38;;
37857;SDS011;23695;55.868;37.472;2022-07-03T00:44:45;11.77;;;4.90;;
37857;SDS011;23695;55.868;37.472;2022-07-03T00:47:22;8.00;;;5.13;;
37857;SDS011;23695;55.868;37.472;2022-07-03T00:49:51;9.73;;;5.20;;
37857;SDS011;23695;55.868;37.472;2022-07-03T00:52:19;9.82;;;4.95;;
37857;SDS011;23695;55.868;37.472;2022-07-03T00:54:55;13.40;;;6.18;;
37857;SDS011;23695;55.868;37.472;2022-07-03T00:57:23;11.43;;;5.47;;
37857;SDS011;23695;55.868;37.472;2022-07-03T00:59:51;8.13;;;4.97;;
37857;SDS011;23695;55.868;37.472;2022-07-03T01:02:29;15.82;;;5.70;;
37857;SDS011;23695;55.868;37.472;2022-07-03T01:08:10;8.10;;;5.35;;
37857;SDS011;23695;55.868;37.472;2022-07-03T01:16:25;8.25;;;5.95;;
37857;SDS011;23695;55.868;37.472;2022-07-03T01:19:05;11.68;;;5.75;;
37857;SDS011;23695;55.868;37.472;2022-07-03T01:21:50;9.77;;;5.72;;
37857;SDS011;23695;55.868;37.472;2022-07-03T01:27:16;8.43;;;5.75;;
37857;SDS011;23695;55.868;37.472;2022-07-03T01:32:19;8.43;;;5.60;;
37857;SDS011;23695;55.868;37.472;2022-07-03T01:34:50;12.10;;;5.53;;
37857;SDS011;23695;55.868;37.472;2022-07-03T01:37:19;10.48;;;5.32;;
37857;SDS011;23695;55.868;37.472;2022-07-03T01:39:48;7.10;;;5.45;;
37857;SDS011;23695;55.868;37.472;2022-07-03T01:42:18;14.10;;;5.80;;
37857;SDS011;23695;55.868;37.472;2022-07-03T01:44:45;8.35;;;5.10;;
37857;SDS011;23695;55.868;37.472;2022-07-03T01:47:18;6.38;;;5.35;;
37857;SDS011;23695;55.868;37.472;2022-07-03T01:49:44;9.00;;;4.97;;
37857;SDS011;23695;55.868;37.472;2022-07-03T01:52:10;11.35;;;5.15;;
37857;SDS011;23695;55.868;37.472;2022-07-03T01:54:37;11.48;;;5.20;;
37857;SDS011;23695;55.868;37.472;2022-07-03T01:57:05;10.52;;;5.05;;
37857;SDS011;23695;55.868;37.472;2022-07-03T01:59:31;11.20;;;5.05;;
37857;SDS011;23695;55.868;37.472;2022-07-03T02:02:04;12.02;;;4.32;;
37857;SDS011;23695;55.868;37.472;2022-07-03T02:04:53;10.20;;;4.68;;
37857;SDS011;23695;55.868;37.472;2022-07-03T02:07:46;12.43;;;4.40;;
37857;SDS011;23695;55.868;37.472;2022-07-03T02:10:16;9.60;;;4.53;;
37857;SDS011;23695;55.868;37.472;2022-07-03T02:15:16;14.37;;;4.20;;
37857;SDS011;23695;55.868;37.472;2022-07-03T02:17:46;7.68;;;4.28;;
37857;SDS011;23695;55.868;37.472;2022-07-03T02:20:14;12.52;;;4.65;;
37857;SDS011;23695;55.868;37.472;2022-07-03T02:22:46;9.15;;;3.95;;
37857;SDS011;23695;55.868;37.472;2022-07-03T02:27:56;11.48;;;4.00;;
37857;SDS011;23695;55.868;37.472;2022-07-03T02:30:28;13.30;;;4.40;;
37857;SDS011;23695;55.868;37.472;2022-07-03T02:32:57;6.90;;;4.07;;
37857;SDS011;23695;55.868;37.472;2022-07-03T02:35:28;8.70;;;3.92;;
37857;SDS011;23695;55.868;37.472;2022-07-03T02:37:56;7.10;;;3.28;;
37857;SDS011;23695;55.868;37.472;2022-07-03T02:43:55;7.90;;;3.45;;
37857;SDS011;23695;55.868;37.472;2022-07-03T02:51:50;6.38;;;3.58;;
37857;SDS011;23695;55.868;37.472;2022-07-03T02:54:23;6.47;;;3.58;;
37857;SDS011;23695;55.868;37.472;2022-07-03T02:56:54;7.28;;;3.60;;
37857;SDS011;23695;55.868;37.472;2022-07-03T03:07:37;6.10;;;3.65;;
37857;SDS011;23695;55.868;37.472;2022-07-03T03:10:21;7.97;;;3.75;;
37857;SDS011;23695;55.868;37.472;2022-07-03T03:12:58;6.13;;;3.13;;
37857;SDS011;23695;55.868;37.472;2022-07-03T03:15:30;9.60;;;3.95;;
37857;SDS011;23695;55.868;37.472;2022-07-03T03:18:02;7.00;;;3.55;;
37857;SDS011;23695;55.868;37.472;2022-07-03T03:20:31;7.90;;;3.90;;
37857;SDS011;23695;55.868;37.472;2022-07-03T03:23:18;6.57;;;3.50;;
37857;SDS011;23695;55.868;37.472;2022-07-03T03:25:52;9.38;;;3.67;;
37857;SDS011;23695;55.868;37.472;2022-07-03T03:28:18;7.03;;;3.55;;
37857;SDS011;23695;55.868;37.472;2022-07-03T03:30:44;7.25;;;3.88;;
37857;SDS011;23695;55.868;37.472;2022-07-03T03:33:10;8.80;;;3.30;;
37857;SDS011;23695;55.868;37.472;2022-07-03T03:35:37;5.57;;;3.05;;
37857;SDS011;23695;55.868;37.472;2022-07-03T03:38:04;9.48;;;3.92;;
37857;SDS011;23695;55.868;37.472;2022-07-03T03:40:31;5.78;;;3.90;;
37857;SDS011;23695;55.868;37.472;2022-07-03T03:42:58;7.82;;;3.40;;
37857;SDS011;23695;55.868;37.472;2022-07-03T03:45:24;5.82;;;4.00;;
37857;SDS011;23695;55.868;37.472;2022-07-03T03:47:50;7.88;;;3.80;;
37857;SDS011;23695;55.868;37.472;2022-07-03T03:50:16;6.03;;;3.65;;
37857;SDS011;23695;55.868;37.472;2022-07-03T03:52:42;8.10;;;3.63;;
37857;SDS011;23695;55.868;37.472;2022-07-03T03:55:08;6.65;;;3.75;;
37857;SDS011;23695;55.868;37.472;2022-07-03T03:57:37;8.77;;;3.25;;
37857;SDS011;23695;55.868;37.472;2022-07-03T04:00:03;6.00;;;3.78;;
37857;SDS011;23695;55.868;37.472;2022-07-03T04:02:38;8.68;;;3.90;;
37857;SDS011;23695;55.868;37.472;2022-07-03T04:05:04;4.57;;;3.08;;
37857;SDS011;23695;55.868;37.472;2022-07-03T04:07:30;8.40;;;3.90;;
37857;SDS011;23695;55.868;37.472;2022-07-03T04:09:56;6.75;;;3.42;;
37857;SDS011;23695;55.868;37.472;2022-07-03T04:12:22;9.23;;;4.15;;
37857;SDS011;23695;55.868;37.472;2022-07-03T04:14:48;7.97;;;3.72;;
37857;SDS011;23695;55.868;37.472;2022-07-03T04:17:14;10.23;;;4.00;;
37857;SDS011;23695;55.868;37.472;2022-07-03T04:19:40;10.23;;;3.80;;
37857;SDS011;23695;55.868;37.472;2022-07-03T04:22:06;4.07;;;3.30;;
37857;SDS011;23695;55.868;37.472;2022-07-03T04:24:36;4.80;;;3.50;;
37857;SDS011;23695;55.868;37.472;2022-07-03T04:27:02;13.68;;;3.97;;
37857;SDS011;23695;55.868;37.472;2022-07-03T04:29:28;5.13;;;3.58;;
37857;SDS011;23695;55.868;37.472;2022-07-03T04:31:54;5.60;;;3.70;;
37857;SDS011;23695;55.868;37.472;2022-07-03T04:34:20;8.93;;;3.67;;
37857;SDS011;23695;55.868;37.472;2022-07-03T04:36:46;6.85;;;3.90;;
37857;SDS011;23695;55.868;37.472;2022-07-03T04:39:11;8.73;;;3.80;;
37857;SDS011;23695;55.868;37.472;2022-07-03T04:41:37;9.73;;;3.35;;
37857;SDS011;23695;55.868;37.472;2022-07-03T04:44:03;8.40;;;3.50;;
37857;SDS011;23695;55.868;37.472;2022-07-03T04:46:29;11.05;;;3.80;;
37857;SDS011;23695;55.868;37.472;2022-07-03T04:48:55;6.03;;;3.50;;
37857;SDS011;23695;55.868;37.472;2022-07-03T04:51:21;7.65;;;3.83;;
37857;SDS011;23695;55.868;37.472;2022-07-03T04:53:46;7.10;;;3.95;;
37857;SDS011;23695;55.868;37.472;2022-07-03T04:56:12;6.28;;;3.83;;
37857;SDS011;23695;55.868;37.472;2022-07-03T04:58:38;9.80;;;4.05;;
37857;SDS011;23695;55.868;37.472;2022-07-03T05:01:04;7.45;;;3.55;;
37857;SDS011;23695;55.868;37.472;2022-07-03T05:03:30;6.35;;;3.53;;
37857;SDS011;23695;55.868;37.472;2022-07-03T05:05:55;7.10;;;4.22;;
37857;SDS011;23695;55.868;37.472;2022-07-03T05:08:22;9.55;;;3.92;;
37857;SDS011;23695;55.868;37.472;2022-07-03T05:10:48;7.63;;;3.92;;
37857;SDS011;23695;55.868;37.472;2022-07-03T05:13:14;5.63;;;3.55;;
37857;SDS011;23695;55.868;37.472;2022-07-03T05:15:40;8.75;;;3.80;;
37857;SDS011;23695;55.868;37.472;2022-07-03T05:18:05;12.25;;;4.00;;
37857;SDS011;23695;55.868;37.472;2022-07-03T05:20:31;6.18;;;3.88;;
37857;SDS011;23695;55.868;37.472;2022-07-03T05:22:58;9.82;;;4.18;;
37857;SDS011;23695;55.868;37.472;2022-07-03T05:25:25;9.70;;;3.90;;
37857;SDS011;23695;55.868;37.472;2022-07-03T05:27:53;7.07;;;3.83;;
37857;SDS011;23695;55.868;37.472;2022-07-03T05:30:20;6.65;;;4.00;;
37857;SDS011;23695;55.868;37.472;2022-07-03T05:32:50;13.20;;;3.95;;
37857;SDS011;23695;55.868;37.472;2022-07-03T05:35:16;11.90;;;4.43;;
37857;SDS011;23695;55.868;37.472;2022-07-03T05:37:42;11.02;;;3.88;;
37857;SDS011;23695;55.868;37.472;2022-07-03T05:40:08;7.30;;;3.65;;
37857;SDS011;23695;55.868;37.472;2022-07-03T05:42:36;9.40;;;4.40;;
37857;SDS011;23695;55.868;37.472;2022-07-03T05:45:02;10.63;;;3.75;;
37857;SDS011;23695;55.868;37.472;2022-07-03T05:47:29;6.10;;;3.85;;
37857;SDS011;23695;55.868;37.472;2022-07-03T05:49:55;8.82;;;3.83;;
37857;SDS011;23695;55.868;37.472;2022-07-03T05:52:21;8.27;;;3.65;;
37857;SDS011;23695;55.868;37.472;2022-07-03T05:54:48;5.80;;;3.40;;
37857;SDS011;23695;55.868;37.472;2022-07-03T05:57:13;9.05;;;3.65;;
37857;SDS011;23695;55.868;37.472;2022-07-03T05:59:39;4.93;;;3.33;;
37857;SDS011;23695;55.868;37.472;2022-07-03T06:02:05;8.30;;;3.83;;
37857;SDS011;23695;55.868;37.472;2022-07-03T06:04:31;10.18;;;3.70;;
37857;SDS011;23695;55.868;37.472;2022-07-03T06:06:57;5.70;;;3.65;;
37857;SDS011;23695;55.868;37.472;2022-07-03T06:09:23;7.00;;;3.70;;
37857;SDS011;23695;55.868;37.472;2022-07-03T06:11:48;10.32;;;3.80;;
37857;SDS011;23695;55.868;37.472;2022-07-03T06:14:14;14.20;;;3.85;;
37857;SDS011;23695;55.868;37.472;2022-07-03T06:16:40;12.15;;;3.63;;
37857;SDS011;23695;55.868;37.472;2022-07-03T06:19:06;11.00;;;4.07;;
37857;SDS011;23695;55.868;37.472;2022-07-03T06:21:32;4.78;;;3.45;;
37857;SDS011;23695;55.868;37.472;2022-07-03T06:23:58;4.88;;;3.50;;
37857;SDS011;23695;55.868;37.472;2022-07-03T06:26:25;8.57;;;3.38;;
37857;SDS011;23695;55.868;37.472;2022-07-03T06:28:51;4.97;;;3.63;;
37857;SDS011;23695;55.868;37.472;2022-07-03T06:31:18;9.23;;;3.30;;
37857;SDS011;23695;55.868;37.472;2022-07-03T06:33:44;6.28;;;3.50;;
37857;SDS011;23695;55.868;37.472;2022-07-03T06:36:10;8.15;;;3.10;;
37857;SDS011;23695;55.868;37.472;2022-07-03T06:38:35;7.35;;;3.95;;
37857;SDS011;23695;55.868;37.472;2022-07-03T06:41:01;7.78;;;5.05;;
37857;SDS011;23695;55.868;37.472;2022-07-03T06:43:27;5.82;;;3.22;;
37857;SDS011;23695;55.868;37.472;2022-07-03T06:45:53;5.20;;;3.58;;
37857;SDS011;23695;55.868;37.472;2022-07-03T06:48:18;6.85;;;3.70;;
37857;SDS011;23695;55.868;37.472;2022-07-03T06:50:47;10.95;;;3.60;;
37857;SDS011;23695;55.868;37.472;2022-07-03T06:53:13;4.05;;;3.08;;
37857;SDS011;23695;55.868;37.472;2022-07-03T06:55:39;10.05;;;3.45;;
37857;SDS011;23695;55.868;37.472;2022-07-03T06:58:05;5.03;;;3.05;;
37857;SDS011;23695;55.868;37.472;2022-07-03T07:00:30;5.20;;;3.10;;
37857;SDS011;23695;55.868;37.472;2022-07-03T07:02:56;5.35;;;3.10;;
37857;SDS011;23695;55.868;37.472;2022-07-03T07:05:22;6.18;;;3.17;;
37857;SDS011;23695;55.868;37.472;2022-07-03T07:07:48;7.07;;;3.25;;
37857;SDS011;23695;55.868;37.472;2022-07-03T07:10:14;9.00;;;3.15;;
37857;SDS011;23695;55.868;37.472;2022-07-03T07:12:40;5.35;;;3.45;;
37857;SDS011;23695;55.868;37.472;2022-07-03T07:15:06;7.88;;;3.33;;
37857;SDS011;23695;55.868;37.472;2022-07-03T07:17:32;5.70;;;3.13;;
37857;SDS011;23695;55.868;37.472;2022-07-03T07:19:58;7.85;;;3.20;;
37857;SDS011;23695;55.868;37.472;2022-07-03T07:22:24;6.85;;;3.42;;
37857;SDS011;23695;55.868;37.472;2022-07-03T07:24:51;8.07;;;2.95;;
37857;SDS011;23695;55.868;37.472;2022-07-03T07:27:17;7.60;;;2.88;;
37857;SDS011;23695;55.868;37.472;2022-07-03T07:29:43;4.88;;;3.05;;
37857;SDS011;23695;55.868;37.472;2022-07-03T07:32:09;6.65;;;3.10;;
37857;SDS011;23695;55.868;37.472;2022-07-03T07:34:35;6.15;;;2.90;;
37857;SDS011;23695;55.868;37.472;2022-07-03T07:37:01;5.47;;;3.33;;
37857;SDS011;23695;55.868;37.472;2022-07-03T07:39:27;4.18;;;3.20;;
37857;SDS011;23695;55.868;37.472;2022-07-03T07:41:53;5.68;;;3.03;;
37857;SDS011;23695;55.868;37.472;2022-07-03T07:44:18;4.82;;;3.40;;
37857;SDS011;23695;55.868;37.472;2022-07-03T07:46:44;3.17;;;2.88;;
37857;SDS011;23695;55.868;37.472;2022-07-03T07:49:10;3.20;;;2.80;;
37857;SDS011;23695;55.868;37.472;2022-07-03T07:51:36;4.10;;;3.10;;
37857;SDS011;23695;55.868;37.472;2022-07-03T07:54:01;4.43;;;2.85;;
37857;SDS011;23695;55.868;37.472;2022-07-03T07:56:27;5.18;;;2.72;;
37857;SDS011;23695;55.868;37.472;2022-07-03T07:58:53;5.97;;;3.00;;
37857;SDS011;23695;55.868;37.472;2022-07-03T08:01:19;12.00;;;3.15;;
37857;SDS011;23695;55.868;37.472;2022-07-03T08:04:03;8.23;;;3.47;;
37857;SDS011;23695;55.868;37.472;2022-07-03T08:06:48;6.45;;;2.70;;
37857;SDS011;23695;55.868;37.472;2022-07-03T08:09:13;6.75;;;3.08;;
37857;SDS011;23695;55.868;37.472;2022-07-03T08:11:39;3.40;;;2.80;;
37857;SDS011;23695;55.868;37.472;2022-07-03T08:14:05;4.90;;;3.10;;
37857;SDS011;23695;55.868;37.472;2022-07-03T08:16:34;7.00;;;3.03;;
37857;SDS011;23695;55.868;37.472;2022-07-03T08:19:00;5.47;;;3.05;;
37857;SDS011;23695;55.868;37.472;2022-07-03T08:21:26;4.40;;;2.97;;
37857;SDS011;23695;55.868;37.472;2022-07-03T08:23:52;7.55;;;3.00;;
37857;SDS011;23695;55.868;37.472;2022-07-03T08:26:18;5.43;;;3.50;;
37857;SDS011;23695;55.868;37.472;2022-07-03T08:28:44;5.72;;;3.40;;
37857;SDS011;23695;55.868;37.472;2022-07-03T08:31:10;4.28;;;3.85;;
37857;SDS011;23695;55.868;37.472;2022-07-03T08:33:36;6.03;;;3.50;;
37857;SDS011;23695;55.868;37.472;2022-07-03T08:36:02;5.53;;;3.75;;
37857;SDS011;23695;55.868;37.472;2022-07-03T08:38:30;9.70;;;3.83;;
37857;SDS011;23695;55.868;37.472;2022-07-03T08:41:01;9.68;;;4.32;;
37857;SDS011;23695;55.868;37.472;2022-07-03T08:43:28;5.80;;;4.07;;
37857;SDS011;23695;55.868;37.472;2022-07-03T08:45:54;9.05;;;4.10;;
37857;SDS011;23695;55.868;37.472;2022-07-03T08:48:23;6.95;;;4.53;;
37857;SDS011;23695;55.868;37.472;2022-07-03T08:50:50;9.23;;;4.32;;
37857;SDS011;23695;55.868;37.472;2022-07-03T08:53:17;5.57;;;4.13;;
37857;SDS011;23695;55.868;37.472;2022-07-03T08:55:47;7.55;;;4.35;;
37857;SDS011;23695;55.868;37.472;2022-07-03T08:58:14;8.73;;;4.30;;
37857;SDS011;23695;55.868;37.472;2022-07-03T09:00:41;6.80;;;3.80;;
37857;SDS011;23695;55.868;37.472;2022-07-03T09:03:10;11.35;;;4.30;;
37857;SDS011;23695;55.868;37.472;2022-07-03T09:05:39;6.72;;;4.45;;
37857;SDS011;23695;55.868;37.472;2022-07-03T09:08:06;7.60;;;4.40;;
37857;SDS011;23695;55.868;37.472;2022-07-03T09:10:33;5.88;;;4.22;;
37857;SDS011;23695;55.868;37.472;2022-07-03T09:12:59;7.35;;;3.88;;
37857;SDS011;23695;55.868;37.472;2022-07-03T09:15:25;4.47;;;3.80;;
37857;SDS011;23695;55.868;37.472;2022-07-03T09:17:58;7.18;;;4.20;;
37857;SDS011;23695;55.868;37.472;2022-07-03T09:20:42;6.40;;;3.83;;
37857;SDS011;23695;55.868;37.472;2022-07-03T09:28:40;6.18;;;3.95;;
37857;SDS011;23695;55.868;37.472;2022-07-03T09:31:09;6.60;;;3.60;;
37857;SDS011;23695;55.868;37.472;2022-07-03T09:33:49;4.93;;;4.03;;
37857;SDS011;23695;55.868;37.472;2022-07-03T09:36:21;4.50;;;3.97;;
37857;SDS011;23695;55.868;37.472;2022-07-03T09:38:48;5.40;;;3.70;;
37857;SDS011;23695;55.868;37.472;2022-07-03T09:41:14;6.53;;;3.70;;
37857;SDS011;23695;55.868;37.472;2022-07-03T09:43:43;7.97;;;3.75;;
37857;SDS011;23695;55.868;37.472;2022-07-03T09:46:10;4.70;;;3.67;;
37857;SDS011;23695;55.868;37.472;2022-07-03T09:48:37;5.38;;;3.53;;
37857;SDS011;23695;55.868;37.472;2022-07-03T09:51:21;4.88;;;3.72;;
37857;SDS011;23695;55.868;37.472;2022-07-03T09:53:57;6.00;;;4.25;;
37857;SDS011;23695;55.868;37.472;2022-07-03T09:56:26;4.65;;;3.63;;
37857;SDS011;23695;55.868;37.472;2022-07-03T09:59:08;6.63;;;3.92;;
37857;SDS011;23695;55.868;37.472;2022-07-03T10:01:40;5.43;;;3.80;;
37857;SDS011;23695;55.868;37.472;2022-07-03T10:04:11;7.80;;;4.05;;
37857;SDS011;23695;55.868;37.472;2022-07-03T10:06:46;6.78;;;3.80;;
37857;SDS011;23695;55.868;37.472;2022-07-03T10:09:17;6.75;;;3.70;;
37857;SDS011;23695;55.868;37.472;2022-07-03T10:11:52;9.18;;;3.70;;
37857;SDS011;23695;55.868;37.472;2022-07-03T10:14:19;6.82;;;4.13;;
37857;SDS011;23695;55.868;37.472;2022-07-03T10:16:47;6.85;;;3.70;;
37857;SDS011;23695;55.868;37.472;2022-07-03T10:21:41;9.48;;;4.38;;
37857;SDS011;23695;55.868;37.472;2022-07-03T10:24:07;6.05;;;4.10;;
37857;SDS011;23695;55.868;37.472;2022-07-03T10:26:34;4.30;;;3.90;;
37857;SDS011;23695;55.868;37.472;2022-07-03T10:29:00;7.70;;;4.28;;
37857;SDS011;23695;55.868;37.472;2022-07-03T10:31:27;9.77;;;4.18;;
37857;SDS011;23695;55.868;37.472;2022-07-03T10:33:53;8.50;;;4.18;;
37857;SDS011;23695;55.868;37.472;2022-07-03T10:36:21;6.32;;;4.10;;
37857;SDS011;23695;55.868;37.472;2022-07-03T10:38:48;6.90;;;3.70;;
37857;SDS011;23695;55.868;37.472;2022-07-03T10:41:19;7.28;;;3.70;;
37857;SDS011;23695;55.868;37.472;2022-07-03T10:44:09;5.70;;;3.60;;
37857;SDS011;23695;55.868;37.472;2022-07-03T10:46:57;6.57;;;3.47;;
37857;SDS011;23695;55.868;37.472;2022-07-03T10:49:23;4.70;;;3.72;;
37857;SDS011;23695;55.868;37.472;2022-07-03T10:54:19;12.15;;;4.25;;
37857;SDS011;23695;55.868;37.472;2022-07-03T10:59:23;6.35;;;3.78;;
37857;SDS011;23695;55.868;37.472;2022-07-03T11:02:26;7.22;;;3.00;;
37857;SDS011;23695;55.868;37.472;2022-07-03T11:05:13;5.22;;;2.70;;
37857;SDS011;23695;55.868;37.472;2022-07-03T11:15:32;9.73;;;2.67;;
37857;SDS011;23695;55.868;37.472;2022-07-03T11:20:36;3.13;;;2.10;;
37857;SDS011;23695;55.868;37.472;2022-07-03T11:23:15;2.92;;;2.45;;
37857;SDS011;23695;55.868;37.472;2022-07-03T11:25:46;6.93;;;2.97;;
37857;SDS011;23695;55.868;37.472;2022-07-03T11:38:47;6.40;;;3.22;;
37857;SDS011;23695;55.868;37.472;2022-07-03T11:41:23;7.13;;;2.90;;
37857;SDS011;23695;55.868;37.472;2022-07-03T11:43:54;5.53;;;2.28;;
37857;SDS011;23695;55.868;37.472;2022-07-03T11:46:23;5.47;;;2.30;;
37857;SDS011;23695;55.868;37.472;2022-07-03T11:48:50;4.80;;;2.60;;
37857;SDS011;23695;55.868;37.472;2022-07-03T11:51:33;5.22;;;2.38;;
37857;SDS011;23695;55.868;37.472;2022-07-03T11:53:59;5.03;;;2.80;;
37857;SDS011;23695;55.868;37.472;2022-07-03T11:56:25;4.13;;;2.40;;
37857;SDS011;23695;55.868;37.472;2022-07-03T11:58:57;5.05;;;2.75;;
37857;SDS011;23695;55.868;37.472;2022-07-03T12:03:50;4.25;;;2.70;;
37857;SDS011;23695;55.868;37.472;2022-07-03T12:06:39;3.72;;;2.88;;
37857;SDS011;23695;55.868;37.472;2022-07-03T12:11:53;5.47;;;3.05;;
37857;SDS011;23695;55.868;37.472;2022-07-03T12:14:35;6.68;;;3.22;;
37857;SDS011;23695;55.868;37.472;2022-07-03T12:17:05;7.68;;;2.85;;
37857;SDS011;23695;55.868;37.472;2022-07-03T12:19:32;3.22;;;2.67;;
37857;SDS011;23695;55.868;37.472;2022-07-03T12:21:58;5.75;;;2.72;;
37857;SDS011;23695;55.868;37.472;2022-07-03T12:24:24;7.50;;;2.83;;
37857;SDS011;23695;55.868;37.472;2022-07-03T12:26:50;8.13;;;2.78;;
37857;SDS011;23695;55.868;37.472;2022-07-03T12:29:16;10.55;;;2.92;;
37857;SDS011;23695;55.868;37.472;2022-07-03T12:31:46;6.07;;;3.00;;
37857;SDS011;23695;55.868;37.472;2022-07-03T12:34:15;6.88;;;2.70;;
37857;SDS011;23695;55.868;37.472;2022-07-03T12:36:55;5.50;;;2.53;;
37857;SDS011;23695;55.868;37.472;2022-07-03T12:39:22;8.55;;;3.05;;
37857;SDS011;23695;55.868;37.472;2022-07-03T12:41:48;5.22;;;2.53;;
37857;SDS011;23695;55.868;37.472;2022-07-03T12:44:14;4.47;;;2.55;;
37857;SDS011;23695;55.868;37.472;2022-07-03T12:46:46;2.90;;;2.60;;
37857;SDS011;23695;55.868;37.472;2022-07-03T12:49:13;3.50;;;2.55;;
37857;SDS011;23695;55.868;37.472;2022-07-03T12:51:39;7.45;;;2.63;;
37857;SDS011;23695;55.868;37.472;2022-07-03T12:54:24;4.53;;;2.50;;
37857;SDS011;23695;55.868;37.472;2022-07-03T12:57:04;5.45;;;2.55;;
37857;SDS011;23695;55.868;37.472;2022-07-03T13:00:03;3.45;;;2.50;;
37857;SDS011;23695;55.868;37.472;2022-07-03T13:02:43;6.43;;;2.75;;
37857;SDS011;23695;55.868;37.472;2022-07-03T13:07:53;7.15;;;2.60;;
37857;SDS011;23695;55.868;37.472;2022-07-03T13:10:20;4.82;;;2.47;;
37857;SDS011;23695;55.868;37.472;2022-07-03T13:12:54;5.97;;;2.88;;
37857;SDS011;23695;55.868;37.472;2022-07-03T13:15:28;5.93;;;2.58;;
37857;SDS011;23695;55.868;37.472;2022-07-03T13:22:58;5.20;;;2.67;;
37857;SDS011;23695;55.868;37.472;2022-07-03T13:25:25;7.78;;;2.70;;
37857;SDS011;23695;55.868;37.472;2022-07-03T13:27:52;4.85;;;2.33;;
37857;SDS011;23695;55.868;37.472;2022-07-03T13:30:27;4.03;;;2.85;;
37857;SDS011;23695;55.868;37.472;2022-07-03T13:32:53;6.45;;;3.00;;
37857;SDS011;23695;55.868;37.472;2022-07-03T13:35:19;4.97;;;2.45;;
37857;SDS011;23695;55.868;37.472;2022-07-03T13:37:45;3.60;;;2.40;;
37857;SDS011;23695;55.868;37.472;2022-07-03T13:40:10;3.47;;;2.30;;
37857;SDS011;23695;55.868;37.472;2022-07-03T13:42:36;2.58;;;2.15;;
37857;SDS011;23695;55.868;37.472;2022-07-03T13:45:02;4.13;;;2.05;;
37857;SDS011;23695;55.868;37.472;2022-07-03T13:47:28;8.23;;;2.47;;
37857;SDS011;23695;55.868;37.472;2022-07-03T13:49:54;8.95;;;3.33;;
37857;SDS011;23695;55.868;37.472;2022-07-03T13:52:20;7.43;;;2.55;;
37857;SDS011;23695;55.868;37.472;2022-07-03T13:54:46;6.30;;;2.30;;
37857;SDS011;23695;55.868;37.472;2022-07-03T13:57:13;4.47;;;2.20;;
37857;SDS011;23695;55.868;37.472;2022-07-03T13:59:39;4.35;;;2.00;;
37857;SDS011;23695;55.868;37.472;2022-07-03T14:02:05;3.83;;;1.85;;
37857;SDS011;23695;55.868;37.472;2022-07-03T14:04:31;1.75;;;1.30;;
37857;SDS011;23695;55.868;37.472;2022-07-03T14:06:57;5.50;;;2.03;;
37857;SDS011;23695;55.868;37.472;2022-07-03T14:09:23;3.67;;;1.70;;
37857;SDS011;23695;55.868;37.472;2022-07-03T14:11:50;1.70;;;1.60;;
37857;SDS011;23695;55.868;37.472;2022-07-03T14:14:16;4.55;;;1.65;;
37857;SDS011;23695;55.868;37.472;2022-07-03T14:16:42;6.03;;;1.92;;
37857;SDS011;23695;55.868;37.472;2022-07-03T14:19:08;4.57;;;1.92;;
37857;SDS011;23695;55.868;37.472;2022-07-03T14:21:34;3.75;;;2.25;;
37857;SDS011;23695;55.868;37.472;2022-07-03T14:24:00;3.20;;;2.00;;
37857;SDS011;23695;55.868;37.472;2022-07-03T14:26:26;4.75;;;1.77;;
37857;SDS011;23695;55.868;37.472;2022-07-03T14:29:23;6.20;;;2.03;;
37857;SDS011;23695;55.868;37.472;2022-07-03T14:32:08;3.45;;;2.00;;
37857;SDS011;23695;55.868;37.472;2022-07-03T14:34:52;2.97;;;1.58;;
37857;SDS011;23695;55.868;37.472;2022-07-03T14:37:18;8.05;;;1.90;;
37857;SDS011;23695;55.868;37.472;2022-07-03T14:39:47;7.13;;;2.00;;
37857;SDS011;23695;55.868;37.472;2022-07-03T14:42:14;5.25;;;2.30;;
37857;SDS011;23695;55.868;37.472;2022-07-03T14:44:40;5.22;;;2.10;;
37857;SDS011;23695;55.868;37.472;2022-07-03T14:47:06;6.10;;;2.17;;
37857;SDS011;23695;55.868;37.472;2022-07-03T14:49:32;6.68;;;2.45;;
37857;SDS011;23695;55.868;37.472;2022-07-03T14:52:02;3.38;;;2.08;;
37857;SDS011;23695;55.868;37.472;2022-07-03T14:54:30;7.95;;;1.92;;
37857;SDS011;23695;55.868;37.472;2022-07-03T14:56:57;5.93;;;2.28;;
37857;SDS011;23695;55.868;37.472;2022-07-03T15:02:32;7.25;;;2.28;;
37857;SDS011;23695;55.868;37.472;2022-07-03T15:05:09;4.35;;;2.03;;
37857;SDS011;23695;55.868;37.472;2022-07-03T15:07:39;4.40;;;2.28;;
37857;SDS011;23695;55.868;37.472;2022-07-03T15:10:07;3.35;;;2.17;;
37857;SDS011;23695;55.868;37.472;2022-07-03T15:12:37;9.93;;;2.70;;
37857;SDS011;23695;55.868;37.472;2022-07-03T15:15:08;4.85;;;2.38;;
37857;SDS011;23695;55.868;37.472;2022-07-03T15:17:36;13.52;;;2.38;;
37857;SDS011;23695;55.868;37.472;2022-07-03T15:20:03;12.10;;;2.58;;
37857;SDS011;23695;55.868;37.472;2022-07-03T15:22:30;5.78;;;2.10;;
37857;SDS011;23695;55.868;37.472;2022-07-03T15:24:59;6.85;;;2.20;;
37857;SDS011;23695;55.868;37.472;2022-07-03T15:27:25;2.92;;;1.83;;
37857;SDS011;23695;55.868;37.472;2022-07-03T15:29:54;4.90;;;2.10;;
37857;SDS011;23695;55.868;37.472;2022-07-03T15:32:21;2.83;;;2.10;;
37857;SDS011;23695;55.868;37.472;2022-07-03T15:34:48;3.13;;;1.90;;
37857;SDS011;23695;55.868;37.472;2022-07-03T15:40:25;3.38;;;1.98;;
37857;SDS011;23695;55.868;37.472;2022-07-03T15:45:02;6.55;;;2.30;;
37857;SDS011;23695;55.868;37.472;2022-07-03T15:47:49;4.85;;;2.42;;
37857;SDS011;23695;55.868;37.472;2022-07-03T15:50:33;3.10;;;2.30;;
37857;SDS011;23695;55.868;37.472;2022-07-03T15:53:05;5.03;;;3.10;;
37857;SDS011;23695;55.868;37.472;2022-07-03T15:55:41;7.90;;;2.50;;
37857;SDS011;23695;55.868;37.472;2022-07-03T15:58:10;4.35;;;2.45;;
37857;SDS011;23695;55.868;37.472;2022-07-03T16:00:38;2.60;;;2.40;;
37857;SDS011;23695;55.868;37.472;2022-07-03T16:06:03;8.80;;;2.15;;
37857;SDS011;23695;55.868;37.472;2022-07-03T16:08:29;4.47;;;2.10;;
37857;SDS011;23695;55.868;37.472;2022-07-03T16:10:57;8.20;;;2.35;;
37857;SDS011;23695;55.868;37.472;2022-07-03T16:13:25;6.10;;;2.20;;
37857;SDS011;23695;55.868;37.472;2022-07-03T16:15:52;9.50;;;2.70;;
37857;SDS011;23695;55.868;37.472;2022-07-03T16:18:22;4.38;;;3.38;;